Time;durP1;ratioP1;P1;durP2;ratioP2;P2;SDS_P1;SDS_P2;PMS_P1;PMS_P2;Temp;Humidity;BMP_temperature;BMP_pressure;BME280_temperature;BME280_humidity;BME280_pressure;Samples;Min_cycle;Max_cycle;Signal;HPM_P1;HPM_P2
2021/05/21 00:00:21;;;;;;;3.00;1.10;;;;;;;27.70;29.46;96460.03;5019724;28;20036;-36
2021/05/21 00:02:46;;;;;;;1.45;0.50;;;;;;;27.70;29.37;96455.63;5023581;28;20441;-32
2021/05/21 00:05:12;;;;;;;2.63;0.75;;;;;;;27.70;29.30;96452.13;5019937;28;20021;-36
2021/05/21 00:07:37;;;;;;;0.93;0.40;;;;;;;27.69;29.24;96448.66;5025446;28;20064;-34
2021/05/21 00:10:04;;;;;;;3.00;0.80;;;;;;;27.69;29.41;96447.81;5028107;28;20064;-34
2021/05/21 00:12:29;;;;;;;6.22;0.90;;;;;;;27.69;29.33;96447.81;5026195;28;20691;-38
2021/05/21 00:14:54;;;;;;;0.80;0.60;;;;;;;27.69;29.35;96453.09;5034301;28;20020;-36
2021/05/21 00:17:20;;;;;;;3.00;0.68;;;;;;;27.68;29.38;96443.50;5019820;28;20029;-34
2021/05/21 00:19:45;;;;;;;5.53;0.85;;;;;;;27.68;29.24;96430.34;5018687;28;20216;-38
2021/05/21 00:22:10;;;;;;;2.72;0.70;;;;;;;27.68;29.24;96435.63;5030555;28;20144;-33
2021/05/21 00:24:36;;;;;;;2.28;0.85;;;;;;;27.69;29.18;96426.75;5032969;28;20033;-35
2021/05/21 00:27:01;;;;;;;4.05;0.70;;;;;;;27.69;29.33;96426.75;5024421;28;20114;-31
2021/05/21 00:29:27;;;;;;;1.77;0.60;;;;;;;27.69;29.41;96426.75;5020564;28;20283;-30
2021/05/21 00:31:52;;;;;;;2.45;0.70;;;;;;;27.68;29.30;96417.19;5025955;28;20508;-37
2021/05/21 00:34:17;;;;;;;0.98;0.63;;;;;;;27.69;29.17;96416.22;5028152;28;20036;-36
2021/05/21 00:36:43;;;;;;;2.00;0.68;;;;;;;27.68;29.28;96414.56;5032290;28;20107;-34
2021/05/21 00:39:08;;;;;;;1.40;0.60;;;;;;;27.68;29.24;96404.03;5021371;28;20029;-33
2021/05/21 00:41:34;;;;;;;2.17;0.80;;;;;;;27.67;29.54;96400.53;5020045;28;20032;-36
2021/05/21 00:43:59;;;;;;;2.03;0.70;;;;;;;27.68;29.28;96393.50;5028687;28;20745;-35
2021/05/21 00:46:24;;;;;;;2.80;0.57;;;;;;;27.68;29.21;96398.75;5027409;28;20024;-33
2021/05/21 00:48:50;;;;;;;0.80;0.45;;;;;;;27.68;29.19;96382.97;5024962;28;20099;-35
2021/05/21 00:51:15;;;;;;;1.73;0.60;;;;;;;27.67;29.17;96389.16;5023045;28;20029;-38
2021/05/21 00:53:41;;;;;;;1.52;0.52;;;;;;;27.67;29.04;96391.78;5026682;28;20033;-32
2021/05/21 00:56:08;;;;;;;1.25;0.52;;;;;;;27.68;29.07;96377.69;5015817;28;20029;-37
2021/05/21 00:58:33;;;;;;;2.70;0.75;;;;;;;27.67;29.34;96365.47;5015345;28;20519;-38
2021/05/21 01:00:59;;;;;;;0.85;0.55;;;;;;;27.67;29.26;96354.94;5026642;28;20041;-33
2021/05/21 01:03:24;;;;;;;1.77;0.50;;;;;;;27.68;29.29;96330.31;5026243;28;20323;-35
2021/05/21 01:05:50;;;;;;;0.95;0.57;;;;;;;27.67;29.28;96341.78;5026873;28;20036;-38
2021/05/21 01:08:16;;;;;;;0.88;0.50;;;;;;;27.67;29.27;96357.56;5023661;28;20029;-32
2021/05/21 01:10:41;;;;;;;0.88;0.50;;;;;;;27.65;29.22;96348.00;5016927;28;20021;-38
2021/05/21 01:13:07;;;;;;;0.40;0.40;;;;;;;27.67;29.59;96328.59;5024394;28;20033;-35
2021/05/21 01:15:39;;;;;;;4.22;0.50;;;;;;;27.65;29.21;96339.28;5028495;28;20130;-35
2021/05/21 01:18:05;;;;;;;1.45;0.55;;;;;;;27.64;29.28;96341.03;5019548;28;20546;-37
2021/05/21 01:20:31;;;;;;;4.22;0.90;;;;;;;27.65;29.45;96349.78;5023724;28;20021;-36
2021/05/21 01:22:57;;;;;;;3.42;1.00;;;;;;;27.64;29.51;96334.94;5026632;28;20551;-37
2021/05/21 01:25:22;;;;;;;2.95;0.73;;;;;;;27.65;29.48;96339.28;5021298;28;20094;-32
2021/05/21 01:27:48;;;;;;;8.07;0.57;;;;;;;27.63;29.47;96339.38;5019379;28;20535;-30
2021/05/21 01:30:14;;;;;;;1.27;0.50;;;;;;;27.63;29.56;96334.09;5019196;28;20029;-37
2021/05/21 01:32:41;;;;;;;3.00;0.68;;;;;;;27.63;29.53;96334.09;5026546;28;20091;-33
2021/05/21 01:35:06;;;;;;;3.70;0.88;;;;;;;27.63;29.56;96328.00;5002046;28;20082;-36
2021/05/21 01:37:32;;;;;;;0.73;0.43;;;;;;;27.63;29.34;96335.88;5024617;28;20037;-32
2021/05/21 01:39:57;;;;;;;2.63;0.57;;;;;;;27.62;29.50;96329.75;4993720;28;20031;-36
2021/05/21 01:42:23;;;;;;;1.52;0.70;;;;;;;27.62;29.47;96337.66;5008997;28;20039;-38
2021/05/21 01:44:50;;;;;;;1.08;0.50;;;;;;;27.63;29.39;96334.09;5030735;28;20025;-38
2021/05/21 01:47:15;;;;;;;1.65;0.52;;;;;;;27.63;29.54;96328.00;5019684;28;20083;-31
2021/05/21 01:49:41;;;;;;;1.63;0.68;;;;;;;27.62;29.53;96324.50;5026009;28;20637;-31
2021/05/21 01:52:06;;;;;;;1.58;0.60;;;;;;;27.63;29.38;96328.84;5022060;28;20055;-34
2021/05/21 01:54:32;;;;;;;0.50;0.40;;;;;;;27.62;29.44;96331.56;5023073;28;20729;-37
2021/05/21 01:56:57;;;;;;;2.40;0.50;;;;;;;27.62;29.42;96327.13;5027731;28;20048;-36
2021/05/21 01:59:23;;;;;;;1.60;0.50;;;;;;;27.62;29.40;96327.13;5029585;28;20036;-34
2021/05/21 02:01:51;;;;;;;3.38;0.50;;;;;;;27.62;29.33;96327.13;5030006;28;20032;-34
2021/05/21 02:04:26;;;;;;;1.35;0.55;;;;;;;27.63;29.34;96317.47;5020653;28;20021;-34
2021/05/21 02:06:51;;;;;;;1.02;0.50;;;;;;;27.62;29.51;96311.34;5028417;28;20507;-40
2021/05/21 02:09:17;;;;;;;3.53;0.63;;;;;;;27.62;29.51;96316.59;5030258;28;20037;-35
2021/05/21 02:11:42;;;;;;;1.00;0.45;;;;;;;27.62;29.35;96315.78;5025941;28;20033;-35
2021/05/21 02:14:08;;;;;;;0.70;0.40;;;;;;;27.62;29.32;96319.22;5032101;28;20025;-30
2021/05/21 02:16:33;;;;;;;2.45;0.40;;;;;;;27.62;29.45;96300.00;5025837;28;20037;-39
2021/05/21 02:18:58;;;;;;;0.65;0.50;;;;;;;27.58;29.43;96288.78;5027171;28;20260;-32
2021/05/21 02:21:31;;;;;;;1.85;0.40;;;;;;;27.61;29.26;96293.03;5032023;28;20024;-32
2021/05/21 02:23:56;;;;;;;1.17;0.60;;;;;;;27.61;29.33;96293.88;5033475;28;20029;-32
2021/05/21 02:26:21;;;;;;;0.75;0.32;;;;;;;27.60;29.45;96286.91;5024080;28;20700;-32
2021/05/21 02:28:47;;;;;;;0.82;0.30;;;;;;;27.60;29.36;96280.78;5030675;28;20528;-32
2021/05/21 02:31:12;;;;;;;2.28;0.60;;;;;;;27.60;29.46;96276.38;5028246;28;20045;-31
2021/05/21 02:33:38;;;;;;;0.82;0.50;;;;;;;27.60;29.41;96276.38;5030767;28;20029;-36
2021/05/21 02:36:03;;;;;;;1.05;0.60;;;;;;;27.59;29.24;96277.31;5031499;28;20032;-37
2021/05/21 02:38:29;;;;;;;1.65;0.65;;;;;;;27.60;29.26;96268.47;5033927;28;20102;-33
2021/05/21 02:40:54;;;;;;;0.57;0.40;;;;;;;27.59;29.39;96253.63;5030027;28;22021;-35
2021/05/21 02:43:20;;;;;;;1.67;0.50;;;;;;;27.60;29.38;96254.47;5025314;28;20032;-33
2021/05/21 02:45:45;;;;;;;1.23;0.40;;;;;;;27.59;29.28;96256.28;5022717;28;20032;-34
2021/05/21 02:48:10;;;;;;;0.95;0.50;;;;;;;27.59;29.43;96258.91;5022116;28;20037;-39
2021/05/21 02:50:39;;;;;;;2.92;0.75;;;;;;;27.59;29.39;96258.91;5025532;28;20051;-32
2021/05/21 02:53:04;;;;;;;3.55;0.40;;;;;;;27.60;29.46;96254.47;5030337;28;20024;-37
2021/05/21 02:55:29;;;;;;;2.35;0.47;;;;;;;27.59;29.35;96258.91;5036991;28;20106;-35
2021/05/21 02:57:55;;;;;;;1.20;0.50;;;;;;;27.59;29.11;96243.09;5034067;28;20620;-37
2021/05/21 03:00:20;;;;;;;1.80;0.60;;;;;;;27.58;29.31;96251.94;5032154;28;20032;-37
2021/05/21 03:02:46;;;;;;;1.52;0.50;;;;;;;27.59;29.21;96250.16;5013732;28;20031;-35
2021/05/21 03:05:11;;;;;;;5.13;0.50;;;;;;;27.58;29.26;96241.41;5016670;28;20037;-36
2021/05/21 03:07:37;;;;;;;2.63;0.52;;;;;;;27.57;29.26;96242.34;5020335;28;20063;-32
2021/05/21 03:10:03;;;;;;;2.10;0.55;;;;;;;27.57;29.31;96245.00;5029343;28;20919;-35
2021/05/21 03:12:28;;;;;;;3.10;0.55;;;;;;;27.57;29.27;96239.72;5033452;28;20028;-30
2021/05/21 03:14:54;;;;;;;1.02;0.32;;;;;;;27.57;29.23;96239.72;5021087;28;20443;-32
2021/05/21 03:17:19;;;;;;;1.65;0.50;;;;;;;27.57;29.26;96233.63;5029342;28;20028;-32
2021/05/21 03:19:46;;;;;;;0.50;0.35;;;;;;;27.57;29.31;96223.94;5030121;28;20086;-31
2021/05/21 03:22:11;;;;;;;1.88;0.55;;;;;;;27.57;29.33;96218.66;5028690;28;20747;-31
2021/05/21 03:24:37;;;;;;;4.20;0.50;;;;;;;27.56;29.28;96206.47;5027661;28;20033;-37
2021/05/21 03:27:03;;;;;;;0.70;0.40;;;;;;;27.57;29.35;96208.13;5031594;28;20048;-36
2021/05/21 03:29:28;;;;;;;2.38;0.40;;;;;;;27.57;29.24;96210.78;5022949;28;20046;-31
2021/05/21 03:31:53;;;;;;;0.52;0.32;;;;;;;27.57;29.39;96208.13;5019641;28;20048;-39
2021/05/21 03:34:19;;;;;;;0.55;0.30;;;;;;;27.56;29.28;96201.19;5036741;28;20032;-35
2021/05/21 03:36:44;;;;;;;5.47;0.50;;;;;;;27.57;29.28;96207.31;5029839;28;20102;-34
2021/05/21 03:39:10;;;;;;;2.15;0.73;;;;;;;27.56;29.33;96201.19;5024232;28;20072;-32
2021/05/21 03:41:35;;;;;;;0.95;0.47;;;;;;;27.56;29.23;96201.19;5030255;28;20446;-33
2021/05/21 03:44:01;;;;;;;0.60;0.30;;;;;;;27.57;29.38;96205.50;5021336;28;20033;-37
2021/05/21 03:46:27;;;;;;;1.63;0.77;;;;;;;27.55;29.28;96204.78;5026167;28;20439;-32
2021/05/21 03:48:52;;;;;;;0.52;0.40;;;;;;;27.55;29.23;96199.53;5021044;28;20119;-32
2021/05/21 03:51:18;;;;;;;1.13;0.55;;;;;;;27.56;29.37;96202.97;5030234;28;20036;-37
2021/05/21 03:53:43;;;;;;;1.77;0.52;;;;;;;27.56;29.24;96206.47;5025463;28;20048;-36
2021/05/21 03:56:13;;;;;;;1.35;0.40;;;;;;;27.55;29.34;96207.41;5032489;28;20406;-37
2021/05/21 03:58:39;;;;;;;0.85;0.40;;;;;;;27.55;29.19;96199.53;5027547;28;20035;-34
2021/05/21 04:01:04;;;;;;;1.42;0.45;;;;;;;27.55;29.29;96204.78;5006337;28;20106;-34
2021/05/21 04:03:30;;;;;;;1.38;0.40;;;;;;;27.56;29.27;96198.56;5024973;28;20099;-36
2021/05/21 04:05:55;;;;;;;1.23;0.30;;;;;;;27.55;29.37;96196.91;5030939;28;20035;-33
2021/05/21 04:08:21;;;;;;;0.90;0.40;;;;;;;27.55;29.35;96194.25;5029448;28;20667;-38
2021/05/21 04:10:46;;;;;;;1.45;0.50;;;;;;;27.54;29.39;96187.31;5033532;28;20028;-32
2021/05/21 04:13:12;;;;;;;0.88;0.30;;;;;;;27.54;29.33;96187.31;5027796;28;20025;-32
2021/05/21 04:15:38;;;;;;;2.22;0.40;;;;;;;27.54;29.34;96184.69;5032393;28;20671;-33
2021/05/21 04:18:06;;;;;;;0.40;0.38;;;;;;;27.54;29.34;96182.06;5032489;28;20037;-37
2021/05/21 04:20:32;;;;;;;0.45;0.20;;;;;;;27.55;29.25;96177.63;5023204;28;20033;-31
2021/05/21 04:22:57;;;;;;;0.50;0.40;;;;;;;27.52;29.32;96170.78;5031168;28;20049;-38
2021/05/21 04:25:23;;;;;;;0.73;0.57;;;;;;;27.51;29.29;96169.94;5022163;28;20037;-46
2021/05/21 04:27:48;;;;;;;1.27;0.50;;;;;;;27.52;29.26;96174.28;5023591;28;20051;-39
2021/05/21 04:30:14;;;;;;;1.33;0.30;;;;;;;27.52;29.38;96173.41;5026568;28;20098;-35
2021/05/21 04:32:39;;;;;;;0.38;0.30;;;;;;;27.50;29.32;96164.81;5032696;28;20559;-37
2021/05/21 04:35:07;;;;;;;0.47;0.40;;;;;;;27.51;29.39;96161.22;5025943;28;20067;-36
2021/05/21 04:37:33;;;;;;;0.82;0.30;;;;;;;27.51;29.29;96163.84;5020537;28;20389;-35
2021/05/21 04:39:58;;;;;;;0.90;0.30;;;;;;;27.51;29.47;96161.22;5033458;28;20254;-31
2021/05/21 04:42:23;;;;;;;0.43;0.30;;;;;;;27.51;29.31;96163.84;5017533;28;20036;-34
2021/05/21 04:44:51;;;;;;;1.13;0.30;;;;;;;27.52;29.29;96162.88;5025384;28;22355;-33
2021/05/21 04:47:16;;;;;;;0.60;0.35;;;;;;;27.51;29.38;96155.94;5019656;28;20111;-31
2021/05/21 04:49:41;;;;;;;0.95;0.35;;;;;;;27.51;29.47;96159.41;5022478;28;20126;-32
2021/05/21 04:52:08;;;;;;;1.60;0.50;;;;;;;27.51;29.36;96162.03;5023217;28;20043;-34
2021/05/21 04:54:34;;;;;;;0.73;0.38;;;;;;;27.51;29.28;96150.69;5027637;28;20252;-35
2021/05/21 04:57:00;;;;;;;1.40;0.43;;;;;;;27.51;29.49;96140.16;5028421;28;20036;-33
2021/05/21 04:59:25;;;;;;;4.45;0.75;;;;;;;27.51;29.52;96145.44;5025814;28;21326;-31
2021/05/21 05:01:51;;;;;;;5.90;0.60;;;;;;;27.51;29.51;96145.44;5024825;28;20198;-32
2021/05/21 05:04:16;;;;;;;1.35;0.40;;;;;;;27.50;29.48;96134.03;5019224;28;20473;-37
2021/05/21 05:06:42;;;;;;;2.00;0.50;;;;;;;27.49;29.49;96134.16;5019840;28;20028;-32
2021/05/21 05:09:08;;;;;;;1.48;0.40;;;;;;;27.49;29.50;96127.09;5032096;28;20885;-35
2021/05/21 05:11:33;;;;;;;2.72;0.35;;;;;;;27.50;29.40;96120.88;5022056;28;20032;-32
2021/05/21 05:13:59;;;;;;;2.85;0.45;;;;;;;27.48;29.46;96120.16;5029085;28;20033;-34
2021/05/21 05:16:24;;;;;;;0.60;0.40;;;;;;;27.49;29.48;96126.25;5024646;28;21221;-34
2021/05/21 05:18:50;;;;;;;1.10;0.22;;;;;;;27.49;29.48;96115.72;5019170;28;20035;-39
2021/05/21 05:21:15;;;;;;;1.00;0.40;;;;;;;27.49;29.45;96113.09;5025219;28;20029;-32
2021/05/21 05:23:41;;;;;;;1.17;0.60;;;;;;;27.47;29.38;96105.34;5031363;28;20032;-34
2021/05/21 05:26:06;;;;;;;3.55;0.63;;;;;;;27.48;29.69;96108.78;5016790;28;20131;-33
2021/05/21 05:28:32;;;;;;;0.82;0.43;;;;;;;27.47;29.39;96102.72;5014939;28;20033;-39
2021/05/21 05:30:57;;;;;;;1.05;0.40;;;;;;;27.48;29.30;96106.16;5022227;28;21025;-32
2021/05/21 05:33:23;;;;;;;1.30;0.60;;;;;;;27.48;29.31;96103.53;5026477;28;20028;-34
2021/05/21 05:35:48;;;;;;;1.05;0.30;;;;;;;27.49;29.42;96102.56;5022756;28;20056;-37
2021/05/21 05:38:13;;;;;;;0.77;0.40;;;;;;;27.47;29.42;96091.31;5027488;28;20036;-37
2021/05/21 05:40:39;;;;;;;1.70;0.25;;;;;;;27.48;29.41;96101.75;5026497;28;20040;-34
2021/05/21 05:43:04;;;;;;;0.70;0.35;;;;;;;27.49;29.41;96099.94;5028349;28;20343;-36
2021/05/21 05:45:30;;;;;;;1.30;0.60;;;;;;;27.46;29.45;96106.25;5016707;28;20824;-37
2021/05/21 05:47:55;;;;;;;0.35;0.30;;;;;;;27.48;29.35;96103.53;5024942;28;20028;-33
2021/05/21 05:50:21;;;;;;;0.75;0.38;;;;;;;27.47;29.38;96097.44;5020196;28;20021;-32
2021/05/21 05:52:46;;;;;;;6.63;0.43;;;;;;;27.48;29.37;96101.75;5029433;28;20029;-37
2021/05/21 05:55:12;;;;;;;1.50;0.40;;;;;;;27.47;29.34;96091.31;5036447;28;20067;-32
2021/05/21 05:57:37;;;;;;;1.45;0.40;;;;;;;27.47;29.38;96091.31;5027166;28;20036;-31
2021/05/21 06:00:11;;;;;;;1.42;0.30;;;;;;;27.48;29.35;96087.75;5037583;28;20277;-31
2021/05/21 06:02:36;;;;;;;2.15;0.40;;;;;;;27.47;29.23;96086.91;5032102;28;20092;-35
2021/05/21 06:05:02;;;;;;;1.50;0.55;;;;;;;27.47;29.34;96086.06;5028723;28;20370;-36
2021/05/21 06:07:29;;;;;;;3.92;0.32;;;;;;;27.47;29.31;96086.06;5030491;28;20040;-32
2021/05/21 06:09:54;;;;;;;4.38;0.65;;;;;;;27.46;29.40;96085.22;5030702;28;20025;-36
2021/05/21 06:12:19;;;;;;;2.50;0.47;;;;;;;27.46;29.46;96085.22;5024020;28;20392;-35
2021/05/21 06:14:45;;;;;;;1.27;0.50;;;;;;;27.47;29.38;96080.81;5019811;28;20163;-36
2021/05/21 06:17:10;;;;;;;1.42;0.68;;;;;;;27.46;29.51;96079.94;5017239;28;20045;-37
2021/05/21 06:19:36;;;;;;;1.63;0.30;;;;;;;27.44;29.37;96073.13;5035482;28;20037;-33
2021/05/21 06:22:01;;;;;;;1.70;0.30;;;;;;;27.46;29.58;96076.50;5018459;28;20040;-33
2021/05/21 06:24:27;;;;;;;1.75;0.40;;;;;;;27.45;29.45;96074.78;5024048;28;20024;-35
2021/05/21 06:29:36;;;;;;;0.20;0.20;;;;;;;27.45;29.40;96067.75;5032322;28;20043;-34
2021/05/21 06:32:02;;;;;;;1.05;0.40;;;;;;;27.46;29.32;96064.16;5029045;28;20037;-33
2021/05/21 06:34:27;;;;;;;3.35;0.50;;;;;;;27.45;29.40;96064.25;5035434;28;20141;-35
2021/05/21 06:36:52;;;;;;;0.77;0.35;;;;;;;27.44;29.36;96060.81;5025592;28;20318;-35
2021/05/21 06:39:18;;;;;;;0.60;0.30;;;;;;;27.45;29.38;96056.38;5033599;28;20025;-31
2021/05/21 06:41:43;;;;;;;5.00;0.43;;;;;;;27.45;29.45;96051.13;5028866;28;20097;-38
2021/05/21 06:44:09;;;;;;;0.50;0.40;;;;;;;27.45;29.35;96045.84;5028667;28;20114;-36
2021/05/21 06:46:34;;;;;;;3.83;0.75;;;;;;;27.45;29.57;96046.69;5025018;28;20021;-33
2021/05/21 06:48:59;;;;;;;3.83;1.05;;;;;;;27.46;29.94;96047.56;5024172;28;20553;-33
2021/05/21 06:51:25;;;;;;;3.92;1.27;;;;;;;27.46;30.25;96047.56;5022774;28;20449;-35
2021/05/21 06:53:50;;;;;;;9.35;0.75;;;;;;;27.46;30.19;96037.03;5028222;28;21934;-35
2021/05/21 06:56:16;;;;;;;2.65;0.50;;;;;;;27.46;29.97;96031.75;5018830;28;21004;-33
2021/05/21 06:58:41;;;;;;;3.00;0.40;;;;;;;27.46;29.87;96031.75;5019951;28;20028;-33
2021/05/21 07:01:07;;;;;;;0.68;0.30;;;;;;;27.46;29.73;96042.28;5022120;28;20049;-34
2021/05/21 07:03:33;;;;;;;1.42;0.50;;;;;;;27.47;29.60;96025.53;5019493;28;20029;-31
2021/05/21 07:05:58;;;;;;;1.27;0.50;;;;;;;27.47;29.62;96028.19;5016551;28;20068;-34
2021/05/21 07:08:24;;;;;;;1.85;0.73;;;;;;;27.47;29.48;96028.19;5023921;28;20052;-37
2021/05/21 07:10:50;;;;;;;7.97;1.17;;;;;;;27.47;29.44;96028.19;5023500;28;20041;-33
2021/05/21 07:13:16;;;;;;;1.17;0.40;;;;;;;27.47;29.28;96029.03;5018780;28;20063;-31
2021/05/21 07:15:42;;;;;;;1.50;0.50;;;;;;;27.48;29.34;96024.59;5026389;28;20028;-32
2021/05/21 07:18:08;;;;;;;1.42;0.60;;;;;;;27.47;29.32;96030.81;5026373;28;20238;-33
2021/05/21 07:20:34;;;;;;;1.77;0.50;;;;;;;27.47;29.33;96029.03;5019572;28;20041;-31
2021/05/21 07:22:59;;;;;;;2.40;0.50;;;;;;;27.47;29.30;96030.81;5024607;28;20167;-39
2021/05/21 07:25:25;;;;;;;3.47;0.40;;;;;;;27.44;29.34;96028.38;5019598;28;20021;-31
2021/05/21 07:27:50;;;;;;;17.48;2.25;;;;;;;27.47;28.62;96028.19;5023142;28;20681;-32
2021/05/21 07:30:16;;;;;;;8.68;0.95;;;;;;;27.46;28.95;96018.59;5020847;28;20783;-37
2021/05/21 07:32:41;;;;;;;5.68;0.73;;;;;;;27.46;28.88;96027.31;5024636;28;20136;-33
2021/05/21 07:35:07;;;;;;;5.65;0.77;;;;;;;27.48;28.97;96021.97;5021417;28;20040;-31
2021/05/21 07:37:33;;;;;;;7.18;1.55;;;;;;;27.45;28.90;96030.06;5026339;28;20029;-33
2021/05/21 07:39:59;;;;;;;2.20;0.70;;;;;;;27.47;29.03;96030.81;5020275;28;20141;-39
2021/05/21 07:42:24;;;;;;;13.75;1.00;;;;;;;27.46;28.99;96021.25;5026172;28;20029;-36
2021/05/21 07:44:49;;;;;;;5.43;0.70;;;;;;;27.47;28.94;96030.81;5025032;28;20759;-35
2021/05/21 07:47:15;;;;;;;2.20;0.70;;;;;;;27.47;28.86;96017.66;5021540;28;20040;-34
2021/05/21 07:49:40;;;;;;;5.13;0.65;;;;;;;27.46;28.81;96031.75;5022545;28;20032;-33
2021/05/21 07:52:06;;;;;;;2.83;0.50;;;;;;;27.47;28.81;96039.56;5023421;28;20072;-37
2021/05/21 07:54:31;;;;;;;5.13;0.80;;;;;;;27.46;29.13;96029.13;5023628;28;20030;-38
2021/05/21 07:56:56;;;;;;;4.88;0.52;;;;;;;27.46;29.19;96026.50;5021921;28;20029;-34
2021/05/21 07:59:22;;;;;;;1.77;0.50;;;;;;;27.48;29.26;96014.91;5022263;28;20051;-37
2021/05/21 08:01:47;;;;;;;3.05;0.80;;;;;;;27.48;29.17;96011.44;5022271;28;20048;-31
2021/05/21 08:04:13;;;;;;;5.72;0.50;;;;;;;27.48;29.28;95998.28;5021444;28;20025;-32
2021/05/21 08:06:40;;;;;;;4.30;0.68;;;;;;;27.48;29.28;96003.53;5021521;28;20032;-33
2021/05/21 08:09:06;;;;;;;2.10;0.63;;;;;;;27.48;29.32;95991.22;5024371;28;20032;-30
2021/05/21 08:11:32;;;;;;;1.50;0.60;;;;;;;27.49;29.42;95989.41;5020656;28;20130;-39
2021/05/21 08:13:57;;;;;;;1.48;0.50;;;;;;;27.49;29.21;95981.53;5022356;28;20152;-35
2021/05/21 08:16:22;;;;;;;2.05;0.82;;;;;;;27.49;29.38;95989.41;5023531;28;20036;-35
2021/05/21 08:18:48;;;;;;;4.07;0.60;;;;;;;27.50;29.23;95988.50;5027452;28;20683;-32
2021/05/21 08:21:13;;;;;;;4.93;0.68;;;;;;;27.49;29.27;95990.28;5028790;28;20037;-35
2021/05/21 08:23:39;;;;;;;1.85;0.60;;;;;;;27.49;29.29;95989.41;5017878;28;20040;-37
2021/05/21 08:26:06;;;;;;;3.45;0.85;;;;;;;27.49;29.11;95992.91;5024268;28;20078;-33
2021/05/21 08:28:33;;;;;;;6.93;1.40;;;;;;;27.44;27.13;95989.78;5028062;28;22203;-35
2021/05/21 08:30:59;;;;;;;13.15;1.85;;;;;;;27.37;25.91;95980.63;5019699;28;20551;-30
2021/05/21 08:33:24;;;;;;;9.35;1.40;;;;;;;27.27;26.09;95975.22;5022870;28;20024;-34
2021/05/21 08:35:49;;;;;;;10.05;1.25;;;;;;;27.19;26.24;95981.00;5021576;28;20035;-33
2021/05/21 08:38:16;;;;;;;11.85;1.85;;;;;;;27.15;26.40;95970.84;5032685;28;20032;-36
2021/05/21 08:40:41;;;;;;;5.93;1.38;;;;;;;27.12;26.69;95951.69;5030304;28;20656;-31
2021/05/21 08:43:08;;;;;;;6.90;1.40;;;;;;;27.12;26.79;95964.00;5029593;28;20025;-31
2021/05/21 08:45:33;;;;;;;10.75;1.40;;;;;;;27.11;27.11;95957.91;5031834;28;20024;-33
2021/05/21 08:47:59;;;;;;;5.75;1.10;;;;;;;27.11;27.13;95963.16;5015028;28;20029;-35
2021/05/21 08:50:25;;;;;;;9.65;1.10;;;;;;;27.11;27.26;95968.41;5021955;28;20040;-34
2021/05/21 08:52:50;;;;;;;6.50;1.00;;;;;;;27.13;27.36;95958.66;5030133;28;20033;-35
2021/05/21 08:55:16;;;;;;;4.25;1.13;;;;;;;27.13;27.47;95969.16;5027739;28;20025;-31
2021/05/21 08:57:44;;;;;;;8.43;1.27;;;;;;;27.16;27.57;95980.41;5027266;28;20385;-34
2021/05/21 09:00:10;;;;;;;4.97;1.08;;;;;;;27.17;27.68;95963.66;5029192;28;20028;-34
2021/05/21 09:02:35;;;;;;;5.18;1.23;;;;;;;27.18;27.55;95984.59;5023103;28;20057;-33
2021/05/21 09:05:02;;;;;;;7.97;1.67;;;;;;;27.20;27.83;95995.00;5027134;28;20029;-40
2021/05/21 09:07:29;;;;;;;4.15;1.42;;;;;;;27.20;27.75;96003.75;5015535;28;20880;-33
2021/05/21 09:09:55;;;;;;;5.03;1.30;;;;;;;27.22;27.83;95998.34;5013861;28;20308;-33
2021/05/21 09:12:22;;;;;;;4.43;1.30;;;;;;;27.22;28.06;96014.13;5028144;28;20079;-36
2021/05/21 09:15:13;;;;;;;8.27;1.35;;;;;;;27.23;27.98;96015.84;5029680;28;20037;-36
2021/05/21 09:17:50;;;;;;;5.10;1.15;;;;;;;27.25;28.07;96024.44;5020103;28;20083;-31
2021/05/21 09:20:24;;;;;;;15.00;1.58;;;;;;;27.24;28.02;96023.59;5027088;28;20659;-30
2021/05/21 09:23:05;;;;;;;5.63;1.45;;;;;;;27.25;28.09;96029.72;5025836;28;20029;-32
2021/05/21 09:25:53;;;;;;;6.90;1.48;;;;;;;27.27;28.24;96030.47;5027307;28;20032;-40
2021/05/21 09:28:35;;;;;;;10.13;1.50;;;;;;;27.28;28.12;96024.25;5026110;28;20896;-34
2021/05/21 09:31:19;;;;;;;3.50;1.17;;;;;;;27.30;28.27;96024.13;5026374;28;20133;-33
2021/05/21 09:33:45;;;;;;;9.93;1.50;;;;;;;27.30;28.30;96019.69;5028202;28;20082;-35
2021/05/21 09:36:11;;;;;;;7.18;1.50;;;;;;;27.30;28.26;96006.53;5032409;28;20058;-36
2021/05/21 09:38:55;;;;;;;5.97;1.40;;;;;;;27.28;28.44;96003.19;5023953;28;20322;-32
2021/05/21 09:41:24;;;;;;;3.22;1.05;;;;;;;27.33;28.31;96005.47;5024137;28;20531;-37
2021/05/21 09:43:54;;;;;;;28.70;1.52;;;;;;;27.33;28.47;95990.53;5021703;28;20025;-31
2021/05/21 09:46:20;;;;;;;10.35;1.65;;;;;;;27.33;28.49;95987.91;5017717;28;20114;-35
2021/05/21 09:48:45;;;;;;;6.70;1.33;;;;;;;27.34;28.54;96002.75;5020886;28;20403;-36
2021/05/21 09:51:15;;;;;;;8.75;1.05;;;;;;;27.36;28.66;96008.75;5029730;28;20036;-31
2021/05/21 09:53:40;;;;;;;2.58;1.13;;;;;;;27.36;28.54;96000.84;5011953;28;20037;-36
2021/05/21 09:56:07;;;;;;;4.35;1.25;;;;;;;27.36;28.46;96005.28;5031708;28;20025;-36
2021/05/21 09:58:39;;;;;;;5.07;1.58;;;;;;;27.37;28.52;96013.06;5026478;28;20407;-38
2021/05/21 10:01:11;;;;;;;2.20;1.25;;;;;;;27.35;28.71;96014.13;5021130;28;20036;-32
2021/05/21 10:03:55;;;;;;;3.28;1.00;;;;;;;27.37;28.73;96013.06;5018777;28;20040;-35
2021/05/21 10:06:24;;;;;;;13.90;2.47;;;;;;;27.38;28.75;96012.09;5020918;28;20089;-34
2021/05/21 10:08:51;;;;;;;9.35;1.70;;;;;;;27.39;28.67;96015.59;5023815;28;20356;-38
2021/05/21 10:11:16;;;;;;;7.78;1.70;;;;;;;27.39;28.79;96011.13;5022933;28;20028;-35
2021/05/21 10:13:43;;;;;;;6.50;1.58;;;;;;;27.40;28.71;96012.00;5007013;28;20053;-34
2021/05/21 10:16:10;;;;;;;9.68;2.10;;;;;;;27.39;28.92;96016.41;5004246;28;20610;-36
2021/05/21 10:18:35;;;;;;;4.85;1.35;;;;;;;27.42;28.72;96020.59;4998114;28;20128;-38
2021/05/21 10:21:01;;;;;;;12.52;1.50;;;;;;;27.42;28.91;96019.78;5003854;28;20291;-32
2021/05/21 10:23:31;;;;;;;6.53;1.80;;;;;;;27.43;28.78;96022.31;5021298;28;20633;-34
2021/05/21 10:25:57;;;;;;;4.18;1.50;;;;;;;27.41;28.81;96012.84;4996704;28;20056;-32
2021/05/21 10:28:25;;;;;;;5.78;1.33;;;;;;;27.44;28.99;96013.44;5002254;28;20071;-32
2021/05/21 10:30:50;;;;;;;3.53;1.10;;;;;;;27.44;28.65;96025.75;5004330;28;20122;-36
2021/05/21 10:33:20;;;;;;;7.70;1.40;;;;;;;27.44;28.70;96023.97;5020975;28;20029;-34
2021/05/21 10:35:45;;;;;;;7.03;1.58;;;;;;;27.44;28.79;96031.03;5019188;28;20052;-32
2021/05/21 10:38:17;;;;;;;6.35;1.77;;;;;;;27.44;28.90;96031.03;5016489;28;20416;-35
2021/05/21 10:40:43;;;;;;;6.20;2.13;;;;;;;27.44;28.92;96031.03;5019229;28;20021;-37
2021/05/21 10:43:15;;;;;;;9.57;2.00;;;;;;;27.44;29.04;96031.88;5021405;28;20028;-30
2021/05/21 10:45:56;;;;;;;6.28;2.00;;;;;;;27.44;29.08;96034.50;5020259;28;20036;-30
2021/05/21 10:48:26;;;;;;;16.10;1.73;;;;;;;27.45;29.19;96040.59;5012083;28;20131;-31
2021/05/21 10:51:06;;;;;;;6.03;1.90;;;;;;;27.46;29.24;96037.03;5023475;28;20060;-36
2021/05/21 10:53:31;;;;;;;5.95;1.75;;;;;;;27.46;29.27;96047.56;5020151;28;20032;-33
2021/05/21 10:55:57;;;;;;;5.55;1.70;;;;;;;27.47;29.28;96054.50;5014276;28;20028;-34
2021/05/21 10:58:28;;;;;;;4.13;1.80;;;;;;;27.47;29.29;96059.75;5011593;28;20041;-31
2021/05/21 11:01:16;;;;;;;7.03;1.95;;;;;;;27.48;29.27;96064.06;5016044;28;20037;-33
2021/05/21 11:04:02;;;;;;;4.93;1.67;;;;;;;27.48;29.53;96071.94;5023629;28;20087;-36
2021/05/21 11:06:40;;;;;;;6.30;1.73;;;;;;;27.49;29.34;96078.88;5023092;28;20029;-32
2021/05/21 11:09:06;;;;;;;4.40;1.55;;;;;;;27.48;29.30;96077.22;5022186;28;20032;-31
2021/05/21 11:11:44;;;;;;;3.85;1.88;;;;;;;27.49;29.40;96081.53;5024716;28;20017;-35
2021/05/21 11:14:29;;;;;;;4.90;1.83;;;;;;;27.50;29.43;96091.13;5022325;28;20020;-35
2021/05/21 11:17:13;;;;;;;3.30;1.40;;;;;;;27.49;29.59;96081.53;5022552;28;20253;-33
2021/05/21 11:19:44;;;;;;;7.60;1.70;;;;;;;27.49;29.54;96081.53;5020803;28;20025;-31
2021/05/21 11:22:27;;;;;;;6.15;1.60;;;;;;;27.49;29.54;96073.63;5022844;28;20036;-39
2021/05/21 11:24:54;;;;;;;4.60;1.67;;;;;;;27.49;29.61;96074.47;5024091;28;20066;-32
2021/05/21 11:27:20;;;;;;;6.18;1.67;;;;;;;27.49;29.56;96073.63;5015024;28;20510;-33
2021/05/21 11:29:48;;;;;;;3.97;1.38;;;;;;;27.49;29.66;96087.63;5020756;28;20036;-32
2021/05/21 11:32:13;;;;;;;4.53;1.23;;;;;;;27.50;29.58;96081.41;5022784;28;20695;-31
2021/05/21 11:34:39;;;;;;;6.85;1.45;;;;;;;27.51;29.71;96077.00;5024889;28;20029;-32